Time;durP1;ratioP1;P1;durP2;ratioP2;P2;SDS_P1;SDS_P2;PMS_P1;PMS_P2;Temp;Humidity;BMP_temperature;BMP_pressure;BME280_temperature;BME280_humidity;BME280_pressure;Samples;Min_cycle;Max_cycle;Signal;HPM_P1;HPM_P2
2023/10/16 00:02:14;;;;;;;8.75;4.70;;;3.90;99.90;;;;;;5096688;28;20123;-52
2023/10/16 00:04:44;;;;;;;11.90;5.30;;;3.90;99.90;;;;;;5096338;28;20047;-55
2023/10/16 00:07:11;;;;;;;9.75;4.57;;;3.90;99.90;;;;;;5096614;28;20046;-51
2023/10/16 00:09:39;;;;;;;8.13;4.55;;;3.90;99.90;;;;;;5096977;28;20043;-55
2023/10/16 00:12:06;;;;;;;8.77;4.88;;;3.80;99.90;;;;;;5096260;28;20152;-51
2023/10/16 00:14:33;;;;;;;10.82;5.30;;;3.80;99.90;;;;;;5096589;28;20048;-53
2023/10/16 00:17:00;;;;;;;9.82;4.88;;;3.80;99.90;;;;;;5096286;28;20047;-54
2023/10/16 00:19:27;;;;;;;8.85;4.18;;;3.80;99.90;;;;;;5096126;28;20044;-54
2023/10/16 00:21:57;;;;;;;7.43;4.57;;;3.70;99.90;;;;;;5096448;28;20043;-55
2023/10/16 00:24:24;;;;;;;8.95;4.50;;;3.70;99.90;;;;;;5096321;28;20044;-55
2023/10/16 00:26:51;;;;;;;8.77;4.78;;;3.70;99.90;;;;;;5095986;28;20067;-59
2023/10/16 00:29:35;;;;;;;7.45;4.22;;;3.70;99.90;;;;;;5096139;28;20431;-54
2023/10/16 00:32:07;;;;;;;10.35;4.90;;;3.70;99.90;;;;;;5077074;28;20048;-57
2023/10/16 00:34:33;;;;;;;8.10;4.80;;;3.70;99.90;;;;;;5095010;28;20048;-58
2023/10/16 00:37:04;;;;;;;9.40;4.40;;;3.70;99.90;;;;;;5094437;28;20044;-54
2023/10/16 00:39:32;;;;;;;8.18;4.40;;;3.60;99.90;;;;;;5096084;28;20044;-50
2023/10/16 00:41:59;;;;;;;11.25;4.82;;;3.60;99.90;;;;;;5095627;28;20044;-55
2023/10/16 00:44:33;;;;;;;10.70;4.93;;;3.50;99.90;;;;;;5094213;28;20479;-54
2023/10/16 00:47:00;;;;;;;9.55;5.10;;;3.50;99.90;;;;;;5094417;28;20044;-49
2023/10/16 00:49:28;;;;;;;7.30;4.65;;;3.60;99.90;;;;;;5096011;28;20046;-55
2023/10/16 00:51:55;;;;;;;10.13;4.97;;;3.50;99.90;;;;;;5095457;28;20564;-53
2023/10/16 00:54:28;;;;;;;11.70;4.97;;;3.50;99.90;;;;;;5095984;28;20086;-47
2023/10/16 00:56:57;;;;;;;6.85;4.43;;;3.50;99.90;;;;;;5095284;28;20048;-47
2023/10/16 00:59:24;;;;;;;9.00;4.85;;;3.50;99.90;;;;;;5094429;28;20044;-52
2023/10/16 01:02:08;;;;;;;8.35;4.10;;;3.50;99.90;;;;;;5095704;28;20073;-49
2023/10/16 01:04:36;;;;;;;8.35;4.22;;;3.50;99.90;;;;;;5095796;28;20109;-48
2023/10/16 01:07:05;;;;;;;8.43;4.20;;;3.40;99.90;;;;;;5094052;28;20147;-51
2023/10/16 01:09:35;;;;;;;8.23;4.10;;;3.40;99.90;;;;;;5095380;28;20536;-53
2023/10/16 01:12:06;;;;;;;9.52;4.90;;;3.40;99.90;;;;;;5095697;28;20040;-53
2023/10/16 01:14:33;;;;;;;8.95;4.78;;;3.30;99.90;;;;;;5093859;28;20043;-48
2023/10/16 01:17:00;;;;;;;9.05;4.50;;;3.30;99.90;;;;;;5096033;28;20473;-48
2023/10/16 01:19:28;;;;;;;8.40;4.35;;;3.30;99.90;;;;;;5093596;28;20055;-55
2023/10/16 01:21:58;;;;;;;7.18;4.35;;;3.30;99.90;;;;;;5095503;28;20044;-50
2023/10/16 01:24:26;;;;;;;12.50;4.45;;;3.30;99.90;;;;;;5095248;28;20521;-51
2023/10/16 01:27:00;;;;;;;8.38;4.55;;;3.30;99.90;;;;;;5094277;28;20086;-54
2023/10/16 01:29:28;;;;;;;7.63;4.10;;;3.30;99.90;;;;;;5095294;28;20090;-56
2023/10/16 01:31:55;;;;;;;8.90;4.53;;;3.30;99.90;;;;;;5094406;28;20379;-54
2023/10/16 01:34:22;;;;;;;7.88;4.57;;;3.20;99.90;;;;;;5094855;28;20046;-52
2023/10/16 01:36:51;;;;;;;7.30;4.00;;;3.20;99.90;;;;;;5095258;28;20547;-51
2023/10/16 01:42:11;;;;;;;5.85;3.63;;;3.20;99.90;;;;;;5094623;28;20050;-55
2023/10/16 01:44:39;;;;;;;7.13;3.72;;;3.10;99.90;;;;;;5093287;28;20043;-56
2023/10/16 01:47:13;;;;;;;9.48;3.72;;;3.20;99.90;;;;;;5094880;28;20032;-58
2023/10/16 01:49:41;;;;;;;8.00;3.72;;;3.10;99.90;;;;;;5093188;28;20130;-50
2023/10/16 01:52:11;;;;;;;7.63;3.47;;;3.10;99.90;;;;;;5093686;28;20040;-54
2023/10/16 01:54:39;;;;;;;8.13;3.40;;;3.10;99.90;;;;;;5094652;28;20372;-51
2023/10/16 01:57:10;;;;;;;6.00;3.58;;;3.10;99.90;;;;;;5093672;28;20126;-52
2023/10/16 01:59:39;;;;;;;7.13;3.92;;;3.10;99.90;;;;;;5093461;28;20450;-51
2023/10/16 02:02:05;;;;;;;5.85;3.40;;;3.10;99.90;;;;;;5093427;28;20394;-56
2023/10/16 02:04:32;;;;;;;7.00;3.70;;;3.10;99.90;;;;;;5094099;28;20036;-56
2023/10/16 02:07:00;;;;;;;8.05;4.15;;;3.00;99.90;;;;;;5094249;28;20043;-49
2023/10/16 02:09:31;;;;;;;9.35;3.92;;;2.90;99.90;;;;;;5092927;28;20174;-53
2023/10/16 02:11:59;;;;;;;8.32;4.00;;;2.90;99.90;;;;;;5094373;28;20062;-51
2023/10/16 02:14:26;;;;;;;9.10;3.40;;;2.90;99.90;;;;;;5093165;28;20127;-57
2023/10/16 02:16:53;;;;;;;5.97;3.58;;;2.90;99.90;;;;;;5093151;28;20050;-54
2023/10/16 02:19:20;;;;;;;8.07;3.70;;;2.90;99.90;;;;;;5093732;28;20040;-56
2023/10/16 02:21:49;;;;;;;7.53;3.65;;;2.90;99.90;;;;;;5093944;28;20444;-54
2023/10/16 02:24:16;;;;;;;6.03;3.05;;;2.90;99.90;;;;;;5092539;28;20498;-57
2023/10/16 02:26:55;;;;;;;6.95;3.60;;;2.90;99.90;;;;;;5092840;28;20090;-53
2023/10/16 02:29:22;;;;;;;7.97;3.38;;;2.90;99.90;;;;;;5094053;28;20475;-51
2023/10/16 02:31:53;;;;;;;5.75;3.28;;;2.90;99.90;;;;;;5093035;28;20545;-50
2023/10/16 02:34:26;;;;;;;7.75;3.00;;;2.90;99.90;;;;;;5093852;28;20126;-50
2023/10/16 02:36:56;;;;;;;6.13;3.08;;;2.80;99.90;;;;;;5094094;28;20048;-53
2023/10/16 02:39:35;;;;;;;4.80;3.00;;;2.80;99.90;;;;;;5092373;28;20423;-49
2023/10/16 02:42:08;;;;;;;6.70;3.40;;;2.80;99.90;;;;;;5093736;28;20044;-51
2023/10/16 02:44:39;;;;;;;5.32;2.63;;;2.80;99.90;;;;;;5092578;28;20070;-56
2023/10/16 02:47:07;;;;;;;7.40;2.70;;;2.80;99.90;;;;;;5093803;28;20376;-58
2023/10/16 02:49:34;;;;;;;5.80;2.67;;;2.80;99.90;;;;;;5093463;28;20075;-52
2023/10/16 02:52:01;;;;;;;8.43;2.58;;;2.80;99.90;;;;;;5093711;28;20040;-55
2023/10/16 02:54:29;;;;;;;4.25;2.40;;;2.80;99.90;;;;;;5093558;28;20378;-50
2023/10/16 02:56:59;;;;;;;5.80;2.58;;;2.70;99.90;;;;;;5093820;28;20036;-56
2023/10/16 02:59:31;;;;;;;4.95;2.30;;;2.70;99.90;;;;;;5092125;28;20120;-56
2023/10/16 03:01:58;;;;;;;7.65;2.55;;;2.70;99.90;;;;;;5093629;28;20040;-57
2023/10/16 03:04:27;;;;;;;5.45;2.22;;;2.70;99.90;;;;;;5093718;28;20040;-56
2023/10/16 03:06:54;;;;;;;4.25;2.05;;;2.70;99.90;;;;;;5093916;28;20044;-54
2023/10/16 03:09:28;;;;;;;4.38;2.28;;;2.60;99.90;;;;;;5093674;28;20113;-50
2023/10/16 03:12:05;;;;;;;7.47;2.60;;;2.70;99.90;;;;;;5092184;28;20483;-54
2023/10/16 03:14:54;;;;;;;6.55;2.25;;;2.60;99.90;;;;;;5092956;28;20131;-49
2023/10/16 03:19:57;;;;;;;4.95;2.30;;;2.60;99.90;;;;;;5091591;28;20127;-52
2023/10/16 03:22:24;;;;;;;5.18;2.63;;;2.70;99.90;;;;;;5093144;28;20039;-53
2023/10/16 03:24:51;;;;;;;4.72;2.47;;;2.60;99.90;;;;;;5092804;28;20132;-54
2023/10/16 03:27:31;;;;;;;4.82;2.38;;;2.60;99.90;;;;;;5093403;28;20353;-56
2023/10/16 03:29:58;;;;;;;5.47;2.63;;;2.60;99.90;;;;;;5092165;28;20515;-51
2023/10/16 03:32:28;;;;;;;5.93;2.10;;;2.60;99.90;;;;;;5091912;28;20368;-54
2023/10/16 03:34:57;;;;;;;5.07;2.08;;;2.60;99.90;;;;;;5091640;28;20040;-56
2023/10/16 03:37:24;;;;;;;7.45;2.10;;;2.60;99.90;;;;;;5093104;28;20119;-52
2023/10/16 03:39:56;;;;;;;5.28;2.03;;;2.60;99.90;;;;;;5093396;28;20040;-53
2023/10/16 03:42:27;;;;;;;4.85;2.20;;;2.60;99.90;;;;;;5093141;28;20042;-53
2023/10/16 03:44:55;;;;;;;4.68;2.38;;;2.60;99.90;;;;;;5092892;28;20048;-51
2023/10/16 03:47:22;;;;;;;4.18;2.22;;;2.60;99.90;;;;;;5093213;28;20040;-58
2023/10/16 03:49:49;;;;;;;5.53;2.50;;;2.60;99.90;;;;;;5092940;28;20063;-56
2023/10/16 03:52:16;;;;;;;5.40;2.35;;;2.60;99.90;;;;;;5093310;28;20486;-58
2023/10/16 03:54:42;;;;;;;4.13;2.10;;;2.50;99.90;;;;;;5092812;28;20047;-53
2023/10/16 03:57:09;;;;;;;4.93;2.08;;;2.50;99.90;;;;;;5093197;28;20515;-58
2023/10/16 03:59:38;;;;;;;5.35;2.13;;;2.50;99.90;;;;;;5092662;28;20530;-51
2023/10/16 04:02:05;;;;;;;4.25;2.10;;;2.50;99.90;;;;;;5092986;28;20048;-53
2023/10/16 04:04:32;;;;;;;5.93;2.15;;;2.50;99.90;;;;;;5091599;28;20093;-54
2023/10/16 04:06:59;;;;;;;5.20;2.33;;;2.50;99.90;;;;;;5096224;28;20437;-50
2023/10/16 04:09:30;;;;;;;4.35;1.98;;;2.50;99.90;;;;;;5096768;28;20071;-53
2023/10/16 04:11:57;;;;;;;8.18;2.08;;;2.50;99.90;;;;;;5096781;28;20042;-55
2023/10/16 04:17:26;;;;;;;4.50;2.13;;;2.50;99.90;;;;;;5073090;28;20087;-56
2023/10/16 04:19:53;;;;;;;3.47;2.03;;;2.60;99.90;;;;;;5095335;28;20486;-54
2023/10/16 04:22:23;;;;;;;6.43;1.90;;;2.60;99.90;;;;;;5095995;28;20044;-54
2023/10/16 04:24:54;;;;;;;3.22;2.00;;;2.60;99.90;;;;;;5095276;28;20059;-52
2023/10/16 04:35:32;;;;;;;4.83;2.60;;;2.50;99.90;;;;;;5096090;28;20043;-52
2023/10/16 04:43:51;;;;;;;4.03;2.20;;;2.50;99.90;;;;;;5096108;28;20036;-56
2023/10/16 04:46:23;;;;;;;5.35;2.15;;;2.50;99.90;;;;;;5096117;28;20098;-51
2023/10/16 04:48:54;;;;;;;4.70;2.35;;;2.50;99.90;;;;;;5095862;28;20044;-54
2023/10/16 04:51:36;;;;;;;5.18;2.50;;;2.50;99.90;;;;;;5093932;28;20076;-51
2023/10/16 04:54:37;;;;;;;5.25;2.22;;;2.50;99.90;;;;;;5095690;28;20036;-49
2023/10/16 04:59:37;;;;;;;7.47;2.72;;;2.50;99.90;;;;;;5096421;28;20048;-53
2023/10/16 05:02:11;;;;;;;4.88;2.75;;;2.50;99.90;;;;;;5094633;28;20051;-59
2023/10/16 05:07:45;;;;;;;5.00;2.63;;;2.50;99.90;;;;;;5095698;28;20047;-55
2023/10/16 05:10:17;;;;;;;4.53;2.50;;;2.50;99.90;;;;;;5095209;28;20050;-56
2023/10/16 05:16:28;;;;;;;4.75;2.78;;;2.50;99.90;;;;;;5058252;28;20140;-56
2023/10/16 05:19:02;;;;;;;6.28;3.42;;;2.50;99.90;;;;;;5095318;28;20047;-48
2023/10/16 06:14:11;;;;;;;7.07;3.43;;;2.50;99.90;;;;;;5094348;28;20535;-54
2023/10/16 06:16:38;;;;;;;5.55;3.10;;;2.50;99.90;;;;;;5094656;28;20621;-55
2023/10/16 06:19:14;;;;;;;5.18;3.03;;;2.50;99.90;;;;;;5094673;28;20524;-49
2023/10/16 06:21:45;;;;;;;8.13;2.80;;;2.50;99.90;;;;;;5094604;28;20502;-54
2023/10/16 06:24:35;;;;;;;4.53;3.25;;;2.60;99.90;;;;;;5094140;28;20043;-53
2023/10/16 06:27:08;;;;;;;5.50;3.10;;;2.60;99.90;;;;;;5094492;28;20044;-58
2023/10/16 06:29:36;;;;;;;5.93;3.08;;;2.60;99.90;;;;;;5093934;28;20050;-52
2023/10/16 06:32:07;;;;;;;6.93;3.33;;;2.70;99.90;;;;;;5094478;28;20155;-54
2023/10/16 06:34:35;;;;;;;7.63;4.00;;;2.70;99.90;;;;;;5094304;28;20077;-56
2023/10/16 06:37:06;;;;;;;6.78;3.45;;;2.70;99.90;;;;;;5094170;28;20378;-51
2023/10/16 06:39:36;;;;;;;5.88;3.70;;;2.70;99.90;;;;;;5094168;28;20048;-53
2023/10/16 06:42:04;;;;;;;6.72;3.72;;;2.70;99.90;;;;;;5094568;28;20085;-56
2023/10/16 06:44:36;;;;;;;7.85;3.85;;;2.70;99.90;;;;;;5092617;28;20036;-55
2023/10/16 06:47:02;;;;;;;7.15;3.45;;;2.80;99.90;;;;;;5093984;28;20044;-52
2023/10/16 06:49:35;;;;;;;7.32;3.58;;;2.80;99.90;;;;;;5094020;28;20448;-56
2023/10/16 06:52:04;;;;;;;5.88;3.33;;;2.80;99.90;;;;;;5094440;28;20075;-58
2023/10/16 06:54:31;;;;;;;8.13;3.58;;;2.90;99.90;;;;;;5094110;28;20160;-53
2023/10/16 06:57:05;;;;;;;9.00;4.00;;;2.90;99.90;;;;;;5093953;28;20432;-53
2023/10/16 06:59:32;;;;;;;6.35;3.33;;;2.90;99.90;;;;;;5093562;28;20047;-56
2023/10/16 07:01:59;;;;;;;8.00;4.43;;;3.00;99.90;;;;;;5093079;28;20478;-53
2023/10/16 07:04:29;;;;;;;8.05;3.95;;;3.00;99.90;;;;;;5093706;28;20116;-48
2023/10/16 07:06:57;;;;;;;7.80;4.80;;;3.10;99.90;;;;;;5094177;28;20327;-54
2023/10/16 07:09:36;;;;;;;7.07;3.95;;;3.10;99.90;;;;;;5093352;28;20036;-53
2023/10/16 07:12:03;;;;;;;6.85;3.90;;;3.10;99.90;;;;;;5094209;28;20052;-52
2023/10/16 07:14:30;;;;;;;10.00;4.68;;;3.20;99.90;;;;;;5093701;28;20036;-55
2023/10/16 07:16:58;;;;;;;7.03;3.97;;;3.20;99.90;;;;;;5093451;28;20043;-54
2023/10/16 07:19:25;;;;;;;7.97;3.95;;;3.20;99.90;;;;;;5093831;28;20398;-56
2023/10/16 07:21:54;;;;;;;10.70;4.45;;;3.20;99.90;;;;;;5091913;28;20114;-52
2023/10/16 07:24:21;;;;;;;5.90;3.70;;;3.30;99.90;;;;;;5092025;28;20029;-57
2023/10/16 07:26:48;;;;;;;7.65;4.05;;;3.30;99.90;;;;;;5092530;28;20036;-55
2023/10/16 07:29:15;;;;;;;11.10;5.07;;;3.40;99.90;;;;;;5093305;28;20097;-55
2023/10/16 07:31:42;;;;;;;9.60;4.57;;;3.40;99.90;;;;;;5092942;28;20055;-53
2023/10/16 07:34:09;;;;;;;7.60;4.68;;;3.40;99.90;;;;;;5091988;28;20044;-56
2023/10/16 07:36:36;;;;;;;9.07;4.97;;;3.50;99.90;;;;;;5091991;28;20036;-54
2023/10/16 07:39:03;;;;;;;9.38;4.00;;;3.50;99.90;;;;;;5092195;28;20382;-53
2023/10/16 07:41:30;;;;;;;8.77;4.43;;;3.60;99.90;;;;;;5094613;28;20086;-56
2023/10/16 07:43:57;;;;;;;5.85;4.03;;;3.60;99.90;;;;;;5096065;28;20390;-54
2023/10/16 07:46:30;;;;;;;7.93;4.55;;;3.60;99.90;;;;;;5095932;28;20055;-57
2023/10/16 07:48:57;;;;;;;6.97;3.75;;;3.70;99.90;;;;;;5097213;28;20051;-50
2023/10/16 07:51:25;;;;;;;8.25;4.20;;;3.80;99.90;;;;;;5096871;28;20048;-54
2023/10/16 07:53:53;;;;;;;7.95;4.20;;;3.80;99.90;;;;;;5097079;28;20078;-55
2023/10/16 07:56:25;;;;;;;5.97;3.75;;;3.90;99.90;;;;;;5097190;28;20079;-52
2023/10/16 07:59:18;;;;;;;8.40;4.05;;;3.90;99.90;;;;;;5097126;28;20040;-57
2023/10/16 08:01:48;;;;;;;8.27;4.65;;;4.00;99.90;;;;;;5097162;28;20040;-55
2023/10/16 08:06:52;;;;;;;8.15;4.55;;;4.10;99.90;;;;;;5097328;28;20047;-57
2023/10/16 08:11:57;;;;;;;8.57;4.72;;;4.20;99.90;;;;;;5097617;28;20051;-52
2023/10/16 08:14:23;;;;;;;7.90;4.32;;;4.30;99.90;;;;;;5097330;28;20040;-51
2023/10/16 08:17:14;;;;;;;11.73;5.03;;;4.30;99.90;;;;;;5096709;28;20036;-55
2023/10/16 08:19:41;;;;;;;7.55;4.82;;;4.40;99.90;;;;;;5113070;28;20395;-58
2023/10/16 08:22:09;;;;;;;10.93;5.10;;;4.50;99.90;;;;;;5096485;28;20043;-50
2023/10/16 08:24:43;;;;;;;9.23;5.45;;;4.50;99.90;;;;;;5096382;28;20044;-53
2023/10/16 08:27:11;;;;;;;9.15;4.63;;;4.60;99.90;;;;;;5096841;28;20127;-57
2023/10/16 08:29:50;;;;;;;15.15;7.60;;;4.70;99.90;;;;;;5096764;28;20043;-54
2023/10/16 08:35:09;;;;;;;7.57;5.30;;;4.80;99.90;;;;;;5096742;28;20036;-54
2023/10/16 08:37:36;;;;;;;9.38;5.47;;;4.90;99.90;;;;;;5096402;28;20288;-52
2023/10/16 08:40:20;;;;;;;11.85;5.85;;;4.90;99.90;;;;;;5094740;28;20131;-55
2023/10/16 08:42:47;;;;;;;10.50;5.75;;;4.90;99.90;;;;;;5095919;28;20044;-52
2023/10/16 08:45:14;;;;;;;10.45;5.88;;;5.00;99.90;;;;;;5095831;28;20470;-55
2023/10/16 08:47:42;;;;;;;10.45;5.63;;;5.10;99.90;;;;;;5096194;28;20089;-55
2023/10/16 08:50:17;;;;;;;9.13;6.03;;;5.10;99.90;;;;;;5095963;28;20052;-54
2023/10/16 08:52:50;;;;;;;12.20;6.32;;;5.20;99.90;;;;;;5095449;28;20043;-46
2023/10/16 08:55:17;;;;;;;9.10;5.75;;;5.30;99.90;;;;;;5096293;28;20040;-57
2023/10/16 08:57:44;;;;;;;9.80;5.53;;;5.40;99.90;;;;;;5095893;28;20077;-57
2023/10/16 09:00:16;;;;;;;12.65;5.70;;;5.50;99.90;;;;;;5096147;28;20040;-59
2023/10/16 09:02:44;;;;;;;8.52;5.68;;;5.50;99.90;;;;;;5095890;28;20098;-58
2023/10/16 09:05:11;;;;;;;12.65;6.40;;;5.50;99.90;;;;;;5095863;28;20059;-53
2023/10/16 09:07:39;;;;;;;8.65;5.57;;;5.60;99.90;;;;;;5095751;28;20036;-55
2023/10/16 09:10:09;;;;;;;54.38;17.27;;;5.70;99.90;;;;;;5096087;28;20367;-55
2023/10/16 09:13:04;;;;;;;30.67;11.68;;;5.70;99.90;;;;;;5095878;28;20036;-55
2023/10/16 09:15:26;;;;;;;16.55;8.23;;;5.80;99.90;;;;;;5095642;28;20048;-59
2023/10/16 09:17:56;;;;;;;12.48;6.20;;;5.90;99.90;;;;;;5094457;28;20081;-58
2023/10/16 09:20:33;;;;;;;15.23;6.85;;;6.00;99.90;;;;;;5095778;28;20055;-53
2023/10/16 09:23:05;;;;;;;9.55;5.20;;;6.10;99.90;;;;;;5095723;28;20060;-54
2023/10/16 09:25:32;;;;;;;9.23;5.60;;;6.20;99.90;;;;;;5095474;28;20501;-54
2023/10/16 09:28:04;;;;;;;7.68;4.43;;;6.30;99.90;;;;;;5095309;28;20459;-51
2023/10/16 09:30:33;;;;;;;9.70;4.28;;;6.40;99.90;;;;;;5095940;28;20155;-52
2023/10/16 09:33:00;;;;;;;9.15;4.07;;;6.50;99.90;;;;;;5095778;28;20469;-53
2023/10/16 09:35:30;;;;;;;8.05;4.22;;;6.60;99.90;;;;;;5095146;28;20090;-52
2023/10/16 09:37:57;;;;;;;10.40;4.10;;;6.80;99.90;;;;;;5095796;28;20036;-56
2023/10/16 09:40:39;;;;;;;8.52;4.30;;;7.00;99.90;;;;;;5095567;28;20040;-58
2023/10/16 09:43:42;;;;;;;11.05;4.20;;;7.10;99.90;;;;;;5094931;28;20112;-56
2023/10/16 09:46:26;;;;;;;10.15;4.63;;;7.20;99.90;;;;;;5093531;28;20506;-48
2023/10/16 09:48:54;;;;;;;9.85;4.25;;;7.30;99.90;;;;;;5095328;28;20047;-52
2023/10/16 09:51:21;;;;;;;12.05;4.63;;;7.30;99.90;;;;;;5093457;28;20101;-57
2023/10/16 09:53:50;;;;;;;7.60;4.53;;;7.40;99.90;;;;;;5094683;28;20051;-54
2023/10/16 09:56:17;;;;;;;7.43;4.13;;;7.40;99.90;;;;;;5094864;28;20047;-55
2023/10/16 09:58:44;;;;;;;10.13;4.28;;;7.60;99.90;;;;;;5093357;28;20048;-54
2023/10/16 10:01:20;;;;;;;8.07;4.25;;;7.60;99.90;;;;;;5094716;28;20081;-55
2023/10/16 10:03:47;;;;;;;7.45;4.00;;;7.70;99.90;;;;;;5095194;28;20390;-56
2023/10/16 10:06:20;;;;;;;10.45;4.25;;;7.70;99.90;;;;;;5094785;28;20504;-54
2023/10/16 10:11:38;;;;;;;8.35;4.15;;;7.90;99.90;;;;;;5094748;28;20051;-56
2023/10/16 10:14:26;;;;;;;9.20;3.80;;;7.90;99.90;;;;;;5094588;28;20044;-53
2023/10/16 10:16:57;;;;;;;7.97;3.72;;;8.00;99.90;;;;;;5094507;28;20032;-55
2023/10/16 10:19:24;;;;;;;7.88;4.43;;;8.00;99.90;;;;;;5094748;28;20064;-54
2023/10/16 10:21:54;;;;;;;8.63;4.35;;;8.10;99.90;;;;;;5094233;28;20067;-56
2023/10/16 10:24:21;;;;;;;7.47;4.20;;;8.10;99.90;;;;;;5093794;28;20032;-58
2023/10/16 10:26:48;;;;;;;9.88;3.97;;;8.20;99.90;;;;;;5094059;28;20054;-58
2023/10/16 10:29:16;;;;;;;6.55;4.07;;;8.30;99.90;;;;;;5093853;28;20530;-53
2023/10/16 10:31:47;;;;;;;9.23;3.90;;;8.40;99.90;;;;;;5092831;28;20395;-57
2023/10/16 10:34:15;;;;;;;10.75;4.78;;;8.40;99.90;;;;;;5093890;28;20132;-55
2023/10/16 10:36:43;;;;;;;6.20;3.50;;;8.50;99.90;;;;;;5092737;28;20081;-54
2023/10/16 10:39:11;;;;;;;7.93;2.70;;;8.70;99.90;;;;;;5093993;28;20056;-55
2023/10/16 10:41:38;;;;;;;7.25;2.58;;;8.80;99.90;;;;;;5094295;28;20123;-57
2023/10/16 10:44:08;;;;;;;8.02;3.05;;;9.00;99.90;;;;;;5093764;28;20535;-51
2023/10/16 10:46:38;;;;;;;6.82;2.22;;;9.10;99.90;;;;;;5093864;28;20113;-53
2023/10/16 10:49:07;;;;;;;7.38;2.55;;;9.20;99.90;;;;;;5093336;28;20040;-54
2023/10/16 10:51:35;;;;;;;5.95;2.60;;;9.30;99.90;;;;;;5093421;28;20106;-54
2023/10/16 10:54:06;;;;;;;6.30;2.50;;;9.40;99.90;;;;;;5093284;28;20486;-52
2023/10/16 10:56:33;;;;;;;8.82;2.35;;;9.50;99.90;;;;;;5093708;28;20040;-57
2023/10/16 10:59:08;;;;;;;5.90;2.58;;;9.60;99.90;;;;;;5093616;28;20144;-55
2023/10/16 11:01:37;;;;;;;9.60;2.65;;;9.70;99.90;;;;;;5093676;28;20068;-59
2023/10/16 11:04:15;;;;;;;5.43;2.50;;;9.80;99.90;;;;;;5093704;28;20040;-54
2023/10/16 11:06:48;;;;;;;8.10;2.30;;;9.80;99.90;;;;;;5093747;28;20070;-52
2023/10/16 11:09:19;;;;;;;5.50;2.47;;;9.90;99.90;;;;;;5093291;28;20033;-56
2023/10/16 11:11:47;;;;;;;6.20;2.40;;;9.90;99.90;;;;;;5092201;28;20471;-51
2023/10/16 11:14:15;;;;;;;4.68;1.83;;;10.00;99.90;;;;;;5093882;28;20429;-49
2023/10/16 11:16:43;;;;;;;5.38;2.38;;;10.00;99.90;;;;;;5093121;28;20036;-52
2023/10/16 11:19:10;;;;;;;8.88;2.05;;;10.10;99.90;;;;;;5093599;28;20043;-55
2023/10/16 11:21:37;;;;;;;4.53;1.80;;;10.10;99.90;;;;;;5091627;28;20101;-54
2023/10/16 11:24:05;;;;;;;4.70;1.60;;;10.20;99.90;;;;;;5093482;28;20115;-53
2023/10/16 11:26:32;;;;;;;5.80;1.45;;;10.30;99.90;;;;;;5093560;28;20059;-57
2023/10/16 11:29:00;;;;;;;5.65;1.48;;;10.40;99.90;;;;;;5094050;28;20040;-54
2023/10/16 11:31:27;;;;;;;4.20;1.40;;;10.50;99.90;;;;;;5093490;28;20055;-51
2023/10/16 11:34:07;;;;;;;8.30;2.20;;;10.60;99.90;;;;;;5093998;28;20086;-54
2023/10/16 11:36:35;;;;;;;5.50;1.52;;;10.70;99.90;;;;;;5093630;28;20039;-56
2023/10/16 11:39:11;;;;;;;3.15;1.65;;;10.80;99.90;;;;;;5093423;28;20057;-55
2023/10/16 11:41:38;;;;;;;5.50;1.70;;;10.90;99.90;;;;;;5093583;28;20044;-56
2023/10/16 11:44:15;;;;;;;3.47;1.67;;;11.00;99.90;;;;;;5093954;28;20040;-52
2023/10/16 11:46:46;;;;;;;6.00;1.60;;;11.00;99.90;;;;;;5093390;28;20094;-54
2023/10/16 11:51:45;;;;;;;8.32;2.58;;;11.20;99.90;;;;;;5093417;28;20048;-54
2023/10/16 11:54:13;;;;;;;5.65;1.73;;;11.20;99.90;;;;;;5093180;28;20038;-53
2023/10/16 11:56:41;;;;;;;6.97;1.83;;;11.30;99.90;;;;;;5093361;28;20469;-54
2023/10/16 11:59:12;;;;;;;4.95;2.03;;;11.30;99.90;;;;;;5093129;28;20066;-58
2023/10/16 12:01:38;;;;;;;5.50;1.67;;;11.40;99.90;;;;;;5093272;28;20039;-58
2023/10/16 12:04:26;;;;;;;4.68;1.55;;;11.40;99.90;;;;;;5093219;28;20123;-57
2023/10/16 12:06:53;;;;;;;7.05;1.83;;;11.50;99.90;;;;;;5093038;28;20040;-50
2023/10/16 12:09:20;;;;;;;5.47;1.88;;;11.50;99.90;;;;;;5093096;28;20080;-54
2023/10/16 12:11:47;;;;;;;5.85;1.70;;;11.50;99.90;;;;;;5093367;28;20036;-54
2023/10/16 12:14:14;;;;;;;6.32;1.80;;;11.60;99.90;;;;;;5093308;28;20489;-58
2023/10/16 12:16:41;;;;;;;4.85;1.50;;;11.60;99.90;;;;;;5093184;28;20401;-56
2023/10/16 12:19:11;;;;;;;4.88;1.73;;;11.60;99.90;;;;;;5093243;28;20436;-53
2023/10/16 12:21:38;;;;;;;7.03;1.77;;;11.60;99.90;;;;;;5093286;28;20044;-54
2023/10/16 12:24:05;;;;;;;4.70;1.40;;;11.50;99.90;;;;;;5093786;28;20490;-57
2023/10/16 12:26:32;;;;;;;4.20;1.70;;;11.50;99.90;;;;;;5093091;28;20046;-52
2023/10/16 12:28:59;;;;;;;5.00;1.63;;;11.50;99.90;;;;;;5094454;28;20042;-52
2023/10/16 12:31:26;;;;;;;4.70;1.48;;;11.50;99.90;;;;;;5096665;28;20482;-53
2023/10/16 12:33:55;;;;;;;5.22;1.73;;;11.50;99.90;;;;;;5096304;28;20046;-55
2023/10/16 12:36:23;;;;;;;6.20;1.50;;;11.50;99.90;;;;;;5096831;28;20043;-55
2023/10/16 12:38:53;;;;;;;6.20;1.50;;;11.60;99.90;;;;;;5096670;28;20086;-51
2023/10/16 12:41:21;;;;;;;3.28;1.83;;;11.70;99.90;;;;;;5096249;28;20048;-53
2023/10/16 12:43:48;;;;;;;8.57;1.52;;;11.70;99.80;;;;;;5096544;28;20075;-55
2023/10/16 12:46:15;;;;;;;5.82;1.60;;;11.80;99.60;;;;;;5096296;28;20047;-55
2023/10/16 12:48:43;;;;;;;5.65;1.40;;;11.80;99.90;;;;;;5096160;28;20425;-50
2023/10/16 12:51:10;;;;;;;2.53;1.25;;;11.90;99.80;;;;;;5096114;28;20051;-56
2023/10/16 12:53:38;;;;;;;4.13;1.45;;;11.90;99.30;;;;;;5096044;28;20044;-53
2023/10/16 12:56:06;;;;;;;3.33;1.35;;;11.90;99.40;;;;;;5095150;28;20039;-52
2023/10/16 12:58:33;;;;;;;2.80;1.20;;;11.90;99.50;;;;;;5095937;28;20050;-54
2023/10/16 13:01:00;;;;;;;6.43;1.70;;;12.00;99.60;;;;;;5096297;28;20039;-55
2023/10/16 13:03:33;;;;;;;4.30;1.13;;;12.00;99.60;;;;;;5095965;28;20039;-50
2023/10/16 13:06:00;;;;;;;5.35;1.30;;;12.10;99.00;;;;;;5095901;28;20094;-54
2023/10/16 13:08:27;;;;;;;5.88;1.33;;;12.10;98.70;;;;;;5096155;28;20047;-49
2023/10/16 13:10:54;;;;;;;5.05;1.10;;;12.00;98.70;;;;;;5095795;28;20044;-54
2023/10/16 13:13:21;;;;;;;6.07;1.70;;;12.10;98.90;;;;;;5094533;28;20098;-52
2023/10/16 13:15:51;;;;;;;7.88;1.48;;;12.20;99.90;;;;;;5096408;28;20085;-59
2023/10/16 13:18:26;;;;;;;6.95;1.65;;;12.10;99.90;;;;;;5096242;28;20123;-53
2023/10/16 13:20:57;;;;;;;3.65;1.50;;;12.20;99.90;;;;;;5096037;28;20068;-59
2023/10/16 13:23:25;;;;;;;3.15;1.40;;;12.20;99.90;;;;;;5095770;28;20438;-54
2023/10/16 13:26:11;;;;;;;6.65;1.30;;;12.20;99.90;;;;;;5095737;28;20060;-56
2023/10/16 13:28:41;;;;;;;5.07;1.80;;;12.20;99.90;;;;;;5095659;28;20394;-52
2023/10/16 13:31:08;;;;;;;3.97;1.52;;;12.20;99.90;;;;;;5095824;28;20048;-57
2023/10/16 13:33:40;;;;;;;3.63;1.83;;;12.20;99.90;;;;;;5095340;28;20101;-56
2023/10/16 13:36:11;;;;;;;4.38;1.80;;;12.20;99.90;;;;;;5095742;28;20059;-55
2023/10/16 13:38:39;;;;;;;4.20;1.60;;;12.30;99.90;;;;;;5094528;28;20043;-52
2023/10/16 13:41:18;;;;;;;4.55;2.33;;;12.30;99.90;;;;;;5095719;28;20040;-54
2023/10/16 13:43:45;;;;;;;3.50;1.98;;;12.30;99.90;;;;;;5094992;28;20071;-57
2023/10/16 13:46:13;;;;;;;4.80;1.80;;;12.30;99.90;;;;;;5095043;28;20036;-54
2023/10/16 13:48:45;;;;;;;5.43;1.88;;;12.30;99.90;;;;;;5095310;28;20044;-52
2023/10/16 13:51:13;;;;;;;6.22;2.40;;;12.40;99.90;;;;;;5093582;28;20056;-60
2023/10/16 13:53:42;;;;;;;5.80;2.00;;;12.30;99.90;;;;;;5095058;28;20052;-54
2023/10/16 13:56:08;;;;;;;3.72;1.60;;;12.30;99.90;;;;;;5095458;28;20521;-55
2023/10/16 13:58:35;;;;;;;5.25;1.90;;;12.20;99.90;;;;;;5095143;28;20048;-55
2023/10/16 14:01:02;;;;;;;4.65;1.88;;;12.20;99.90;;;;;;5095208;28;20393;-57
2023/10/16 14:03:29;;;;;;;4.70;1.70;;;12.20;99.90;;;;;;5093740;28;20036;-52
2023/10/16 14:05:59;;;;;;;5.15;1.88;;;12.20;99.90;;;;;;5095174;28;20050;-56
2023/10/16 14:08:26;;;;;;;4.63;1.90;;;12.20;99.90;;;;;;5094614;28;20043;-55
2023/10/16 14:10:57;;;;;;;6.85;1.70;;;12.20;99.90;;;;;;5094726;28;20046;-56
2023/10/16 14:13:27;;;;;;;5.30;1.52;;;12.10;99.90;;;;;;5094780;28;20123;-56
2023/10/16 14:15:57;;;;;;;7.93;3.03;;;12.20;99.90;;;;;;5094488;28;20090;-58
2023/10/16 14:18:29;;;;;;;5.65;2.10;;;12.20;99.90;;;;;;5094532;28;20058;-54
2023/10/16 14:20:56;;;;;;;6.57;2.30;;;12.20;99.90;;;;;;5093285;28;20450;-56
2023/10/16 14:23:29;;;;;;;6.32;2.15;;;12.20;99.90;;;;;;5094829;28;20039;-54
2023/10/16 14:25:59;;;;;;;5.72;1.98;;;12.20;99.90;;;;;;5094360;28;20111;-60
2023/10/16 14:28:27;;;;;;;5.07;2.50;;;12.20;99.90;;;;;;5094348;28;20371;-54
2023/10/16 14:30:54;;;;;;;4.38;2.15;;;12.20;99.90;;;;;;5094286;28;20075;-58
2023/10/16 14:33:21;;;;;;;5.53;2.28;;;12.20;99.90;;;;;;5094158;28;20118;-53
2023/10/16 14:35:49;;;;;;;5.15;2.40;;;12.20;99.90;;;;;;5094322;28;20051;-54
2023/10/16 14:38:19;;;;;;;7.15;2.38;;;12.20;99.90;;;;;;5093932;28;20040;-56
2023/10/16 14:40:46;;;;;;;4.80;2.17;;;12.20;99.90;;;;;;5094176;28;20043;-56
2023/10/16 14:43:15;;;;;;;6.75;2.00;;;12.20;99.90;;;;;;5093922;28;20040;-56
2023/10/16 14:45:43;;;;;;;7.57;2.65;;;12.20;99.90;;;;;;5094577;28;20039;-55